Time;durP1;ratioP1;P1;durP2;ratioP2;P2;SDS_P1;SDS_P2;PMS_P1;PMS_P2;Temp;Humidity;BMP_temperature;BMP_pressure;BME280_temperature;BME280_humidity;BME280_pressure;Samples;Min_cycle;Max_cycle;Signal;HPM_P1;HPM_P2
2022/10/02 00:02:57;;;;;;;;;;;;;;;15.45;61.28;100177.22;5282066;33;34397;-74
2022/10/02 00:06:08;;;;;;;;;;;;;;;15.45;61.44;100164.81;5284583;33;33685;-84
2022/10/02 00:09:13;;;;;;;;;;;;;;;15.81;60.35;100166.13;5251736;33;34178;-75
2022/10/02 00:12:16;;;;;;;;;;;;;;;14.95;63.21;100173.25;5267703;33;45040;-74
2022/10/02 00:15:21;;;;;;;;;;;;;;;15.44;60.89;100175.50;5282179;33;32996;-74
2022/10/02 00:18:24;;;;;;;;;;;;;;;15.33;61.05;100188.59;5275479;33;33550;-83
2022/10/02 00:21:55;;;;;;;;;;;;;;;15.88;60.02;100193.09;5279516;33;34224;-76
2022/10/02 00:25:00;;;;;;;;;;;;;;;14.97;63.31;100195.19;5267543;33;34169;-83
2022/10/02 00:28:20;;;;;;;;;;;;;;;15.38;61.85;100197.06;5279261;33;34900;-75
2022/10/02 00:31:22;;;;;;;;;;;;;;;15.34;62.13;100203.53;5279631;33;34414;-82
2022/10/02 00:34:43;;;;;;;;;;;;;;;15.47;62.19;100198.31;5277807;33;33582;-75
2022/10/02 00:37:47;;;;;;;;;;;;;;;15.89;60.44;100200.94;5295021;33;44701;-85
2022/10/02 00:40:58;;;;;;;;;;;;;;;15.64;60.86;100204.28;5283244;33;33910;-75
2022/10/02 00:43:59;;;;;;;;;;;;;;;15.65;61.35;100213.09;5281419;33;34512;-74
2022/10/02 00:47:10;;;;;;;;;;;;;;;15.14;63.13;100220.63;5281322;33;33301;-84
2022/10/02 00:50:19;;;;;;;;;;;;;;;15.08;63.37;100235.09;5285474;33;45196;-74
2022/10/02 00:53:54;;;;;;;;;;;;;;;15.22;62.73;100228.09;5293604;33;34322;-83
2022/10/02 00:57:10;;;;;;;;;;;;;;;15.71;61.19;100247.13;5259163;33;33838;-75
2022/10/02 01:00:13;;;;;;;;;;;;;;;14.89;63.55;100245.06;5281846;33;46053;-74
2022/10/02 01:03:52;;;;;;;;;;;;;;;14.50;65.73;100254.37;5267066;33;33982;-75
2022/10/02 01:06:54;;;;;;;;;;;;;;;15.02;65.43;100242.53;5255536;33;33965;-83
2022/10/02 01:09:56;;;;;;;;;;;;;;;15.40;63.70;100262.25;5272148;33;34464;-82
2022/10/02 01:12:58;;;;;;;;;;;;;;;15.74;62.39;100254.91;5282301;33;34197;-83
2022/10/02 01:16:00;;;;;;;;;;;;;;;15.44;63.69;100265.56;5297210;33;33979;-83
2022/10/02 01:19:02;;;;;;;;;;;;;;;14.81;66.77;100258.75;5257446;33;34295;-73
2022/10/02 01:22:24;;;;;;;;;;;;;;;15.74;62.73;100251.41;5285340;33;34307;-80
2022/10/02 01:25:26;;;;;;;;;;;;;;;14.68;65.69;100257.72;5280329;33;32750;-83
2022/10/02 01:28:28;;;;;;;;;;;;;;;15.51;63.93;100252.78;5278625;33;34441;-74
2022/10/02 01:31:30;;;;;;;;;;;;;;;14.83;66.48;100256.84;5283668;33;33759;-82
2022/10/02 01:34:32;;;;;;;;;;;;;;;15.02;65.45;100245.19;5281093;33;33777;-73
2022/10/02 01:37:36;;;;;;;;;;;;;;;15.26;64.89;100256.94;5288255;33;34463;-74
2022/10/02 01:40:39;;;;;;;;;;;;;;;14.77;66.17;100262.50;5279099;33;34091;-80
2022/10/02 01:43:48;;;;;;;;;;;;;;;15.87;62.51;100269.09;5280500;33;34277;-83
2022/10/02 01:46:56;;;;;;;;;;;;;;;15.19;64.50;100268.84;5286959;33;43545;-75
2022/10/02 01:50:37;;;;;;;;;;;;;;;14.74;65.62;100277.69;5270570;33;34599;-84
2022/10/02 01:54:01;;;;;;;;;;;;;;;14.29;68.07;100287.28;5232543;33;33920;-74
2022/10/02 01:57:09;;;;;;;;;;;;;;;15.08;66.18;100293.31;5211835;33;34439;-84
2022/10/02 02:00:11;;;;;;;;;;;;;;;14.72;66.90;100300.75;5281225;33;43968;-84
2022/10/02 02:03:16;;;;;;;;;;;;;;;15.05;66.05;100293.47;5295683;33;44916;-74
2022/10/02 02:06:20;;;;;;;;;;;;;;;14.69;67.46;100306.22;5254976;33;35337;-81
2022/10/02 02:09:30;;;;;;;;;;;;;;;15.08;66.08;100309.19;5272908;33;33841;-82
2022/10/02 02:12:38;;;;;;;;;;;;;;;15.16;66.56;100311.37;5272512;33;33179;-74
2022/10/02 02:15:53;;;;;;;;;;;;;;;15.43;64.70;100317.69;5279631;33;33439;-80
2022/10/02 02:18:59;;;;;;;;;;;;;;;15.32;65.68;100321.91;5293095;33;35134;-84
2022/10/02 02:22:03;;;;;;;;;;;;;;;15.86;63.28;100331.00;5267205;33;34077;-84
2022/10/02 02:25:09;;;;;;;;;;;;;;;16.25;61.97;100324.16;5280986;33;34651;-83
2022/10/02 02:28:11;;;;;;;;;;;;;;;15.78;62.05;100313.84;5253070;33;33250;-73
2022/10/02 02:31:14;;;;;;;;;;;;;;;15.15;65.67;100325.56;5279392;33;45052;-73
2022/10/02 02:34:19;;;;;;;;;;;;;;;15.62;64.32;100319.25;5282323;33;33101;-76
2022/10/02 02:37:21;;;;;;;;;;;;;;;14.93;67.37;100331.25;5265289;33;33580;-74
2022/10/02 02:40:24;;;;;;;;;;;;;;;15.05;66.54;100330.53;5270133;33;34295;-74
2022/10/02 02:43:28;;;;;;;;;;;;;;;15.43;65.52;100330.06;5267556;33;34519;-83
2022/10/02 02:46:32;;;;;;;;;;;;;;;14.55;69.22;100339.56;5294857;33;33713;-74
2022/10/02 02:49:48;;;;;;;;;;;;;;;14.80;68.63;100349.63;5282054;33;34435;-84
2022/10/02 02:52:50;;;;;;;;;;;;;;;14.71;68.80;100342.22;5264337;33;47766;-82
2022/10/02 02:55:53;;;;;;;;;;;;;;;14.50;68.92;100344.28;5296024;33;33666;-83
2022/10/02 02:59:00;;;;;;;;;;;;;;;14.70;68.22;100356.41;5266067;33;35607;-82
2022/10/02 03:02:02;;;;;;;;;;;;;;;15.58;64.75;100355.63;5282595;33;34460;-74
2022/10/02 03:05:09;;;;;;;;;;;;;;;15.48;64.43;100351.00;5281098;33;33993;-74
2022/10/02 03:08:28;;;;;;;;;;;;;;;15.65;64.17;100370.25;5275350;33;44244;-73
2022/10/02 03:11:36;;;;;;;;;;;;;;;15.15;66.33;100370.56;5273401;33;33991;-74
2022/10/02 03:14:57;;;;;;;;;;;;;;;15.28;65.97;100381.31;5292002;33;36930;-74
2022/10/02 03:18:08;;;;;;;;;;;;;;;15.70;64.27;100373.47;5297819;33;35371;-83
2022/10/02 03:21:14;;;;;;;;;;;;;;;15.57;63.97;100391.00;5283654;33;34606;-83
2022/10/02 03:24:34;;;;;;;;;;;;;;;15.24;65.81;100379.75;5256498;33;44705;-82
2022/10/02 03:27:40;;;;;;;;;;;;;;;15.52;65.54;100387.81;5294958;33;33574;-74
2022/10/02 03:30:42;;;;;;;;;;;;;;;15.53;65.23;100393.94;5281220;33;46087;-75
2022/10/02 03:33:44;;;;;;;;;;;;;;;14.70;68.87;100395.22;5296099;33;34249;-73
2022/10/02 03:36:46;;;;;;;;;;;;;;;15.44;65.59;100390.88;5269951;33;33237;-74
2022/10/02 03:39:48;;;;;;;;;;;;;;;15.22;66.86;100392.25;5286931;33;33980;-75
2022/10/02 03:42:50;;;;;;;;;;;;;;;14.59;69.30;100401.94;5291566;33;34454;-83
2022/10/02 03:45:52;;;;;;;;;;;;;;;15.93;64.10;100398.56;5268522;33;34352;-83
2022/10/02 03:48:55;;;;;;;;;;;;;;;15.89;63.34;100397.06;5296718;33;33620;-74
2022/10/02 03:51:57;;;;;;;;;;;;;;;15.80;63.82;100404.72;5282966;33;34019;-73
2022/10/02 03:55:03;;;;;;;;;;;;;;;15.54;64.83;100401.81;5306524;32;33790;-82
2022/10/02 03:58:10;;;;;;;;;;;;;;;15.64;65.58;100408.28;5255554;33;33802;-75
2022/10/02 04:01:15;;;;;;;;;;;;;;;16.07;63.13;100410.97;5267706;33;44439;-75
2022/10/02 04:04:17;;;;;;;;;;;;;;;16.37;61.67;100407.38;5283617;33;33323;-83
2022/10/02 04:07:21;;;;;;;;;;;;;;;15.54;64.07;100417.69;5283578;33;33729;-82
2022/10/02 04:10:23;;;;;;;;;;;;;;;14.81;68.77;100427.19;5249899;33;34363;-82
2022/10/02 04:13:26;;;;;;;;;;;;;;;15.13;67.68;100420.97;5280783;33;34052;-84
2022/10/02 04:16:30;;;;;;;;;;;;;;;15.22;67.05;100416.06;5281748;33;33696;-75
2022/10/02 04:19:40;;;;;;;;;;;;;;;15.45;66.28;100423.50;5269055;33;34115;-75
2022/10/02 04:22:48;;;;;;;;;;;;;;;15.10;67.20;100429.06;5267997;33;46803;-83
2022/10/02 04:25:51;;;;;;;;;;;;;;;14.62;67.38;100433.53;5285916;33;33840;-74
2022/10/02 04:28:54;;;;;;;;;;;;;;;15.38;64.45;100432.75;5280144;33;34450;-73
2022/10/02 04:32:00;;;;;;;;;;;;;;;15.72;63.92;100436.13;5296775;33;34024;-83
2022/10/02 04:35:11;;;;;;;;;;;;;;;16.39;60.83;100447.91;5268235;33;34324;-83
2022/10/02 04:38:16;;;;;;;;;;;;;;;16.01;62.19;100451.13;5269498;33;44624;-83
2022/10/02 04:41:21;;;;;;;;;;;;;;;15.93;63.48;100453.38;5297740;33;33664;-83
2022/10/02 04:44:41;;;;;;;;;;;;;;;15.70;64.59;100460.91;5280496;33;34250;-84
2022/10/02 04:47:46;;;;;;;;;;;;;;;15.68;64.61;100468.09;5296345;33;45083;-75
2022/10/02 04:50:54;;;;;;;;;;;;;;;15.37;65.52;100468.13;5281884;33;35099;-84
2022/10/02 04:54:08;;;;;;;;;;;;;;;15.96;62.86;100472.59;5287791;33;34474;-74
2022/10/02 04:57:16;;;;;;;;;;;;;;;16.31;61.84;100490.00;5295235;33;34607;-74
2022/10/02 05:00:19;;;;;;;;;;;;;;;14.09;68.95;100479.50;5281742;33;44606;-74
2022/10/02 05:03:39;;;;;;;;;;;;;;;15.31;65.27;100473.78;5282858;33;33742;-83
2022/10/02 05:06:50;;;;;;;;;;;;;;;15.74;63.14;100471.34;5281460;33;43460;-82
2022/10/02 05:10:01;;;;;;;;;;;;;;;14.46;67.58;100490.84;5251567;33;34180;-74
2022/10/02 05:13:11;;;;;;;;;;;;;;;14.65;68.10;100495.13;5294990;33;33730;-83
2022/10/02 05:16:16;;;;;;;;;;;;;;;14.31;68.95;100494.28;5281179;33;44489;-83
2022/10/02 05:19:25;;;;;;;;;;;;;;;15.06;66.02;100501.63;5305556;33;33309;-84
2022/10/02 05:22:29;;;;;;;;;;;;;;;14.28;68.51;100508.50;5280390;33;34000;-75
2022/10/02 05:25:52;;;;;;;;;;;;;;;15.08;66.20;100501.59;5302622;32;33825;-74
2022/10/02 05:29:06;;;;;;;;;;;;;;;15.51;65.03;100505.28;5288414;33;34317;-74
2022/10/02 05:32:08;;;;;;;;;;;;;;;16.00;63.31;100501.59;5282888;33;34061;-74
2022/10/02 05:35:30;;;;;;;;;;;;;;;16.42;60.33;100500.78;5296717;33;33751;-74
2022/10/02 05:38:51;;;;;;;;;;;;;;;17.08;58.50;100491.37;5280441;33;34083;-84
2022/10/02 05:42:04;;;;;;;;;;;;;;;18.67;52.80;100492.09;5284030;33;36295;-74
2022/10/02 05:45:18;;;;;;;;;;;;;;;17.91;53.61;100503.59;5283225;33;35020;-83
2022/10/02 05:48:20;;;;;;;;;;;;;;;18.80;51.61;100513.38;5267636;33;44487;-75
2022/10/02 05:51:27;;;;;;;;;;;;;;;18.59;50.33;100495.28;5301388;33;32127;-82
2022/10/02 05:54:35;;;;;;;;;;;;;;;19.94;47.69;100504.94;5266315;33;33846;-74
2022/10/02 05:57:40;;;;;;;;;;;;;;;20.38;45.87;100502.47;5286605;33;34419;-84
2022/10/02 06:00:43;;;;;;;;;;;;;;;19.77;47.49;100518.69;5294571;33;44811;-73
2022/10/02 06:04:15;;;;;;;;;;;;;;;20.08;46.58;100519.03;5281723;33;34626;-84
2022/10/02 06:07:18;;;;;;;;;;;;;;;18.84;48.87;100539.69;5280757;33;46012;-75
2022/10/02 06:10:21;;;;;;;;;;;;;;;20.00;46.78;100531.16;5260430;33;34157;-83
2022/10/02 06:13:24;;;;;;;;;;;;;;;18.83;49.53;100550.44;5274580;33;33244;-84
2022/10/02 06:16:38;;;;;;;;;;;;;;;19.79;46.68;100530.09;5265217;33;34334;-74
2022/10/02 06:19:42;;;;;;;;;;;;;;;20.10;46.95;100546.47;5267687;33;33632;-74
2022/10/02 06:22:52;;;;;;;;;;;;;;;21.06;43.71;100539.78;5295561;33;44795;-85
2022/10/02 06:25:55;;;;;;;;;;;;;;;21.08;43.63;100537.81;5266574;33;34493;-84
2022/10/02 06:29:02;;;;;;;;;;;;;;;21.87;42.21;100532.25;5278224;33;34445;-83
2022/10/02 06:32:17;;;;;;;;;;;;;;;20.32;44.54;100530.50;5282420;33;34787;-75
2022/10/02 06:35:24;;;;;;;;;;;;;;;19.25;47.59;100540.31;5280248;33;45169;-83
2022/10/02 06:38:34;;;;;;;;;;;;;;;19.09;48.36;100551.25;5258072;33;34268;-75
2022/10/02 06:41:46;;;;;;;;;;;;;;;18.77;49.21;100559.72;5281340;33;34019;-84
2022/10/02 06:45:07;;;;;;;;;;;;;;;19.89;46.35;100551.59;5297402;33;44771;-83
2022/10/02 06:48:32;;;;;;;;;;;;;;;19.72;46.50;100558.19;5286900;33;33966;-83
2022/10/02 06:51:52;;;;;;;;;;;;;;;19.77;46.32;100569.34;5254367;33;33594;-74
2022/10/02 06:55:06;;;;;;;;;;;;;;;20.10;45.41;100578.47;5298003;33;33558;-85
2022/10/02 06:58:20;;;;;;;;;;;;;;;19.24;47.71;100586.59;5276996;33;34439;-84
2022/10/02 07:01:38;;;;;;;;;;;;;;;20.59;43.82;100596.94;5283656;33;34525;-75
2022/10/02 07:04:50;;;;;;;;;;;;;;;19.15;46.93;100606.75;5295722;33;33394;-74
2022/10/02 07:07:52;;;;;;;;;;;;;;;20.71;44.00;100608.50;5261568;33;33308;-85
2022/10/02 07:11:09;;;;;;;;;;;;;;;20.16;44.79;100607.38;5282752;33;34068;-74
2022/10/02 07:14:29;;;;;;;;;;;;;;;21.88;40.70;100606.19;5281022;33;45321;-75
2022/10/02 07:17:50;;;;;;;;;;;;;;;22.02;40.72;100619.28;5268259;33;34010;-85
2022/10/02 07:21:10;;;;;;;;;;;;;;;21.59;41.78;100608.59;5297945;33;34491;-74
2022/10/02 07:24:31;;;;;;;;;;;;;;;21.78;40.93;100599.94;5280898;33;44450;-84
2022/10/02 07:27:33;;;;;;;;;;;;;;;22.32;40.12;100598.97;5288769;33;33901;-84
2022/10/02 07:30:51;;;;;;;;;;;;;;;20.04;43.31;100610.97;5280495;33;35020;-74
2022/10/02 07:33:59;;;;;;;;;;;;;;;20.73;43.41;100620.75;5281430;33;34962;-85
2022/10/02 07:37:04;;;;;;;;;;;;;;;21.21;42.44;100625.88;5304285;33;34960;-74
2022/10/02 07:40:18;;;;;;;;;;;;;;;21.71;40.68;100622.81;5293061;32;32864;-74
2022/10/02 07:43:31;;;;;;;;;;;;;;;22.39;39.56;100622.41;5290871;32;44847;-74
2022/10/02 07:46:59;;;;;;;;;;;;;;;19.14;45.66;100640.53;5277331;33;33882;-74
2022/10/02 07:50:10;;;;;;;;;;;;;;;18.17;48.48;100650.75;5280071;33;34182;-75
2022/10/02 07:53:47;;;;;;;;;;;;;;;18.04;49.21;100640.09;5282708;33;45308;-82
2022/10/02 07:56:49;;;;;;;;;;;;;;;18.70;47.46;100634.81;5225833;33;44462;-74
2022/10/02 07:59:52;;;;;;;;;;;;;;;17.21;50.84;100644.53;5281065;33;33710;-75
2022/10/02 08:03:03;;;;;;;;;;;;;;;17.67;50.68;100625.66;5282538;33;33617;-75
2022/10/02 08:06:05;;;;;;;;;;;;;;;17.77;50.55;100636.56;5282537;33;34141;-84
2022/10/02 08:09:15;;;;;;;;;;;;;;;17.79;50.71;100646.16;5278847;33;34008;-84
2022/10/02 08:12:26;;;;;;;;;;;;;;;17.00;51.97;100648.50;5266788;33;44058;-75
2022/10/02 08:15:32;;;;;;;;;;;;;;;17.13;52.79;100648.59;5261469;33;35439;-74
2022/10/02 08:18:35;;;;;;;;;;;;;;;17.68;50.29;100645.97;5290576;33;34309;-74
2022/10/02 08:21:41;;;;;;;;;;;;;;;17.60;51.43;100653.56;5267817;33;33816;-82
2022/10/02 08:24:48;;;;;;;;;;;;;;;17.76;50.67;100654.31;5282045;33;45186;-83
2022/10/02 08:27:52;;;;;;;;;;;;;;;17.80;49.64;100653.19;5263893;33;33505;-82
2022/10/02 08:30:55;;;;;;;;;;;;;;;17.60;49.91;100656.22;5282928;33;33229;-75
2022/10/02 08:34:05;;;;;;;;;;;;;;;17.29;51.58;100654.66;5267992;33;34780;-84
2022/10/02 08:37:06;;;;;;;;;;;;;;;17.35;51.64;100651.63;5281539;33;33377;-84
2022/10/02 08:40:27;;;;;;;;;;;;;;;17.96;50.26;100652.16;5296945;33;34432;-73
2022/10/02 08:43:52;;;;;;;;;;;;;;;17.83;50.35;100660.94;5279464;33;34724;-75
2022/10/02 08:46:57;;;;;;;;;;;;;;;18.94;46.88;100652.59;5281198;33;34687;-74
2022/10/02 08:50:14;;;;;;;;;;;;;;;18.00;48.57;100659.84;5284606;33;34489;-75
2022/10/02 08:53:27;;;;;;;;;;;;;;;18.48;47.20;100659.31;5280258;33;44505;-75
2022/10/02 08:56:48;;;;;;;;;;;;;;;18.02;49.14;100670.38;5296068;33;31876;-75
2022/10/02 08:59:56;;;;;;;;;;;;;;;17.97;48.21;100672.47;5275608;33;44551;-82
2022/10/02 09:03:17;;;;;;;;;;;;;;;18.43;47.65;100667.66;5288843;33;31971;-74
2022/10/02 09:06:29;;;;;;;;;;;;;;;17.97;47.72;100676.03;5297685;33;44415;-83
2022/10/02 09:09:31;;;;;;;;;;;;;;;17.46;49.08;100677.53;5247564;33;34733;-76
2022/10/02 09:12:57;;;;;;;;;;;;;;;17.90;48.62;100649.91;5295875;33;34114;-75
2022/10/02 09:16:21;;;;;;;;;;;;;;;18.20;47.91;100661.19;5280026;33;33399;-75
2022/10/02 09:19:29;;;;;;;;;;;;;;;18.87;45.59;100661.09;5280582;33;34482;-75
2022/10/02 09:22:34;;;;;;;;;;;;;;;17.51;47.82;100675.41;5296203;33;33798;-84
2022/10/02 09:25:52;;;;;;;;;;;;;;;17.87;47.90;100673.09;5281113;33;34460;-75
2022/10/02 09:29:05;;;;;;;;;;;;;;;18.20;46.36;100674.50;5290385;33;34423;-83
2022/10/02 09:32:20;;;;;;;;;;;;;;;19.24;44.86;100666.53;5283672;33;33755;-75
2022/10/02 09:35:34;;;;;;;;;;;;;;;21.31;40.04;100660.78;5280504;33;34027;-74
2022/10/02 09:38:43;;;;;;;;;;;;;;;22.45;36.45;100647.84;5294475;33;34471;-74
2022/10/02 09:41:51;;;;;;;;;;;;;;;23.29;34.79;100640.56;5280698;33;46086;-85
2022/10/02 09:44:55;;;;;;;;;;;;;;;23.76;34.42;100630.13;5304170;33;33848;-82
2022/10/02 09:48:20;;;;;;;;;;;;;;;23.68;33.55;100640.72;5276823;33;34038;-84
2022/10/02 09:51:25;;;;;;;;;;;;;;;22.85;35.35;100636.38;5280529;33;33927;-84
2022/10/02 09:54:45;;;;;;;;;;;;;;;22.00;35.46;100647.16;5294208;33;34309;-75
2022/10/02 09:57:47;;;;;;;;;;;;;;;23.70;33.25;100644.97;5280715;33;45376;-84
2022/10/02 10:01:08;;;;;;;;;;;;;;;22.42;35.33;100634.72;5296755;33;34820;-76
2022/10/02 10:04:29;;;;;;;;;;;;;;;22.86;33.80;100644.34;5284120;33;34755;-83
2022/10/02 10:07:58;;;;;;;;;;;;;;;22.77;34.58;100642.41;5275050;33;34422;-83
2022/10/02 10:11:18;;;;;;;;;;;;;;;23.64;32.74;100634.78;5270768;33;34479;-83
2022/10/02 10:14:32;;;;;;;;;;;;;;;22.37;35.47;100626.22;5280403;33;43120;-76
2022/10/02 10:17:44;;;;;;;;;;;;;;;21.34;36.80;100644.50;5270240;33;34341;-75
2022/10/02 10:20:55;;;;;;;;;;;;;;;20.22;38.95;100642.44;5284090;33;44673;-83
2022/10/02 10:24:15;;;;;;;;;;;;;;;21.84;35.31;100628.84;5280876;33;34139;-84
2022/10/02 10:27:37;;;;;;;;;;;;;;;20.62;38.27;100635.94;5294878;33;44634;-84
2022/10/02 10:30:58;;;;;;;;;;;;;;;20.58;38.26;100637.97;5284683;33;34147;-83
2022/10/02 10:34:19;;;;;;;;;;;;;;;19.78;39.03;100627.09;5278457;33;31409;-84
2022/10/02 10:41:00;;;;;;;;;;;;;;;19.55;39.95;100615.38;5282653;33;33813;-83
2022/10/02 10:44:05;;;;;;;;;;;;;;;20.99;37.75;100615.19;5280942;33;34118;-75
2022/10/02 10:47:33;;;;;;;;;;;;;;;20.11;38.64;100617.53;5296639;33;33481;-81
2022/10/02 10:50:47;;;;;;;;;;;;;;;18.74;41.27;100622.97;5280135;33;34750;-75
2022/10/02 10:53:49;;;;;;;;;;;;;;;19.29;40.74;100625.28;5295171;33;45349;-83
2022/10/02 10:57:03;;;;;;;;;;;;;;;19.83;40.26;100624.91;5282616;33;33781;-75
2022/10/02 11:00:08;;;;;;;;;;;;;;;19.83;40.76;100624.06;5269140;33;33760;-75
2022/10/02 11:03:33;;;;;;;;;;;;;;;20.17;39.13;100609.91;5295682;33;33534;-76
2022/10/02 11:06:55;;;;;;;;;;;;;;;19.23;42.04;100622.19;5237798;33;34203;-84
2022/10/02 11:10:01;;;;;;;;;;;;;;;20.31;40.51;100613.34;5274149;33;34540;-83
2022/10/02 11:13:12;;;;;;;;;;;;;;;19.88;41.30;100627.25;5285490;33;34050;-75
2022/10/02 11:16:28;;;;;;;;;;;;;;;19.41;41.55;100632.38;5282523;33;44565;-84
2022/10/02 11:19:30;;;;;;;;;;;;;;;18.87;43.00;100639.78;5297666;33;33725;-75
2022/10/02 11:22:44;;;;;;;;;;;;;;;20.05;40.56;100632.19;5280956;33;33252;-84
2022/10/02 11:25:55;;;;;;;;;;;;;;;19.31;42.19;100641.16;5276418;33;44650;-75
2022/10/02 11:29:03;;;;;;;;;;;;;;;19.39;42.29;100634.31;5282319;33;33888;-83
2022/10/02 11:32:27;;;;;;;;;;;;;;;20.46;40.22;100618.41;5283215;33;33417;-76
2022/10/02 11:35:31;;;;;;;;;;;;;;;21.09;38.63;100610.81;5297705;33;34780;-83
2022/10/02 11:38:34;;;;;;;;;;;;;;;20.62;39.80;100611.88;5269145;33;34361;-83
2022/10/02 11:41:44;;;;;;;;;;;;;;;20.18;40.83;100602.75;5297470;33;33992;-83
2022/10/02 11:44:53;;;;;;;;;;;;;;;19.93;40.36;100599.25;5293287;33;45832;-75
2022/10/02 11:47:55;;;;;;;;;;;;;;;20.57;39.72;100588.22;5283091;33;36160;-75
2022/10/02 11:51:00;;;;;;;;;;;;;;;19.13;41.30;100596.22;5299437;33;33912;-74
2022/10/02 11:54:15;;;;;;;;;;;;;;;19.85;40.83;100588.31;5281263;33;34238;-83
2022/10/02 11:57:37;;;;;;;;;;;;;;;19.91;41.24;100587.88;5296904;33;45965;-75
2022/10/02 12:00:39;;;;;;;;;;;;;;;19.98;41.27;100570.44;5255869;33;33387;-75
2022/10/02 12:03:42;;;;;;;;;;;;;;;20.60;40.23;100579.09;5280926;33;43064;-82
2022/10/02 12:06:56;;;;;;;;;;;;;;;21.31;39.42;100581.41;5298405;33;33912;-82
2022/10/02 12:10:16;;;;;;;;;;;;;;;20.42;40.97;100586.69;5261592;33;34547;-83
2022/10/02 12:13:22;;;;;;;;;;;;;;;20.13;42.20;100576.41;5296954;33;45052;-76
2022/10/02 12:16:24;;;;;;;;;;;;;;;21.01;40.75;100579.37;5269864;33;35690;-75
2022/10/02 12:19:26;;;;;;;;;;;;;;;20.82;40.52;100587.16;5281327;33;34024;-75
2022/10/02 12:29:26;;;;;;;;;;;;;;;21.07;40.71;100568.19;5292344;33;44617;-75
2022/10/02 12:32:35;;;;;;;;;;;;;;;20.53;42.10;100571.56;5284180;33;33570;-83
2022/10/02 12:35:46;;;;;;;;;;;;;;;20.49;42.84;100563.94;5277877;33;34470;-84
2022/10/02 12:39:23;;;;;;;;;;;;;;;19.86;43.69;100568.69;5282324;33;44937;-75
2022/10/02 12:42:25;;;;;;;;;;;;;;;20.62;42.88;100558.47;5226033;33;34015;-83
2022/10/02 12:45:43;;;;;;;;;;;;;;;18.83;47.64;100569.94;5294018;33;33391;-86
2022/10/02 12:48:58;;;;;;;;;;;;;;;20.16;44.82;100551.34;5276214;33;44541;-76
2022/10/02 12:52:00;;;;;;;;;;;;;;;20.87;42.86;100550.25;5280682;33;34069;-76
2022/10/02 12:55:08;;;;;;;;;;;;;;;20.35;44.27;100558.75;5297741;33;34009;-75
2022/10/02 12:58:09;;;;;;;;;;;;;;;18.82;47.83;100554.94;5280232;33;33092;-83
2022/10/02 13:01:30;;;;;;;;;;;;;;;18.40;48.74;100559.59;5295370;33;45782;-74
2022/10/02 13:04:38;;;;;;;;;;;;;;;19.31;47.38;100551.38;5288774;33;34306;-74
2022/10/02 13:07:59;;;;;;;;;;;;;;;19.10;48.08;100556.47;5280263;33;33437;-84
2022/10/02 13:11:01;;;;;;;;;;;;;;;18.81;49.50;100555.91;5254862;33;935140;-76
2022/10/02 13:14:11;;;;;;;;;;;;;;;19.22;48.93;100533.41;5278413;33;34893;-74
2022/10/02 13:17:16;;;;;;;;;;;;;;;19.73;48.25;100519.91;5279467;33;46033;-76
2022/10/02 13:20:27;;;;;;;;;;;;;;;20.58;46.14;100520.47;5286373;33;34996;-75
2022/10/02 13:23:35;;;;;;;;;;;;;;;21.25;44.63;100511.53;5280002;33;33885;-75
2022/10/02 13:27:01;;;;;;;;;;;;;;;20.50;45.49;100518.41;5268812;33;44791;-75
2022/10/02 13:30:18;;;;;;;;;;;;;;;19.40;48.98;100516.09;5279919;33;33500;-74
2022/10/02 13:33:20;;;;;;;;;;;;;;;19.62;48.35;100511.84;5273117;33;44600;-83
2022/10/02 13:36:26;;;;;;;;;;;;;;;20.47;46.70;100518.63;5291659;33;33646;-84
2022/10/02 13:39:54;;;;;;;;;;;;;;;20.52;46.00;100518.28;5269014;33;32557;-75
2022/10/02 13:43:15;;;;;;;;;;;;;;;20.19;47.04;100513.72;5296176;33;34594;-75
2022/10/02 13:46:25;;;;;;;;;;;;;;;19.22;49.54;100506.78;5282790;33;44717;-75
2022/10/02 13:49:39;;;;;;;;;;;;;;;19.51;48.37;100499.28;5269765;33;34862;-82
2022/10/02 13:52:54;;;;;;;;;;;;;;;18.78;50.79;100513.50;5289583;33;33678;-74
2022/10/02 13:56:06;;;;;;;;;;;;;;;18.85;50.79;100514.75;5279778;33;31845;-75
2022/10/02 13:59:12;;;;;;;;;;;;;;;19.05;50.43;100510.66;5288539;33;44463;-74
2022/10/02 14:02:26;;;;;;;;;;;;;;;19.06;50.86;100499.03;5277705;33;34973;-75
2022/10/02 14:05:42;;;;;;;;;;;;;;;20.15;48.12;100491.75;5281309;33;34379;-83
2022/10/02 14:08:47;;;;;;;;;;;;;;;19.12;50.37;100489.75;5280409;33;44389;-83
2022/10/02 14:11:49;;;;;;;;;;;;;;;18.87;51.02;100491.56;5283727;33;34266;-74
2022/10/02 14:14:55;;;;;;;;;;;;;;;19.45;49.71;100487.28;5294689;33;33521;-74
2022/10/02 14:18:15;;;;;;;;;;;;;;;19.09;51.16;100490.84;5280238;33;34707;-82
2022/10/02 14:21:17;;;;;;;;;;;;;;;18.77;52.14;100487.84;5281084;33;44765;-75
2022/10/02 14:24:58;;;;;;;;;;;;;;;19.16;50.74;100485.91;5294984;33;33929;-75
2022/10/02 14:28:03;;;;;;;;;;;;;;;18.71;51.95;100495.41;5275345;33;47858;-74
2022/10/02 14:31:23;;;;;;;;;;;;;;;18.70;51.63;100489.22;5295673;33;34435;-83
2022/10/02 14:34:28;;;;;;;;;;;;;;;18.74;51.68;100482.75;5282130;33;34536;-84
2022/10/02 14:37:30;;;;;;;;;;;;;;;18.14;53.03;100478.06;5279988;33;33713;-75
2022/10/02 14:40:36;;;;;;;;;;;;;;;18.52;52.71;100478.03;5297145;33;34031;-83
2022/10/02 14:43:38;;;;;;;;;;;;;;;19.35;50.07;100470.25;5282324;33;33607;-83
2022/10/02 14:46:59;;;;;;;;;;;;;;;18.31;52.71;100472.44;5295866;33;33954;-83
2022/10/02 14:50:09;;;;;;;;;;;;;;;18.59;51.95;100473.12;5284140;33;34798;-84
2022/10/02 14:53:11;;;;;;;;;;;;;;;18.69;51.45;100468.06;5265689;33;43993;-83
2022/10/02 14:56:32;;;;;;;;;;;;;;;18.65;51.42;100462.06;5296270;33;33612;-75
2022/10/02 14:59:35;;;;;;;;;;;;;;;18.79;50.97;100456.63;5280200;33;33575;-85
2022/10/02 15:02:40;;;;;;;;;;;;;;;18.62;51.91;100438.31;5296834;33;33846;-83
2022/10/02 15:05:55;;;;;;;;;;;;;;;17.93;53.71;100434.34;5281694;33;44510;-75
2022/10/02 15:09:16;;;;;;;;;;;;;;;18.73;51.75;100427.75;5255760;33;33152;-83
2022/10/02 15:12:19;;;;;;;;;;;;;;;18.04;53.57;100426.47;5295134;33;46327;-83
2022/10/02 15:15:22;;;;;;;;;;;;;;;18.82;51.66;100437.78;5271974;33;34425;-83
2022/10/02 15:18:23;;;;;;;;;;;;;;;17.86;54.22;100437.41;5297697;33;33278;-83
2022/10/02 15:21:30;;;;;;;;;;;;;;;18.11;54.21;100433.91;5281923;33;33389;-84
2022/10/02 15:24:32;;;;;;;;;;;;;;;18.07;54.26;100434.22;5264881;33;34328;-83
2022/10/02 15:27:38;;;;;;;;;;;;;;;18.28;54.02;100434.53;5259555;33;34819;-75
2022/10/02 15:30:41;;;;;;;;;;;;;;;18.33;53.73;100427.94;5281752;33;33171;-85
2022/10/02 15:33:59;;;;;;;;;;;;;;;18.49;53.53;100413.56;5271589;33;44976;-84
2022/10/02 15:37:07;;;;;;;;;;;;;;;18.22;54.25;100421.66;5283890;33;34433;-84
2022/10/02 15:40:21;;;;;;;;;;;;;;;17.92;55.56;100422.84;5298108;33;34001;-83
2022/10/02 15:43:29;;;;;;;;;;;;;;;17.62;56.60;100419.59;5285783;33;34682;-83
2022/10/02 15:46:36;;;;;;;;;;;;;;;17.36;57.13;100419.53;5282158;33;33802;-77
2022/10/02 15:49:55;;;;;;;;;;;;;;;17.57;57.10;100426.06;5292682;33;34824;-82
2022/10/02 15:52:59;;;;;;;;;;;;;;;17.42;57.91;100418.28;5280906;33;33403;-75
2022/10/02 15:56:20;;;;;;;;;;;;;;;17.40;58.40;100417.53;5295173;33;34224;-78
2022/10/02 15:59:29;;;;;;;;;;;;;;;17.62;57.61;100415.12;5288922;33;33294;-76
2022/10/02 16:02:47;;;;;;;;;;;;;;;17.19;59.34;100410.03;5282337;33;33783;-76
2022/10/02 16:05:52;;;;;;;;;;;;;;;16.52;61.46;100404.59;5298376;33;44477;-83
2022/10/02 16:08:53;;;;;;;;;;;;;;;16.97;60.59;100410.59;5262825;33;33786;-82
2022/10/02 16:12:03;;;;;;;;;;;;;;;16.98;60.84;100404.31;5289885;33;34551;-84
2022/10/02 16:15:08;;;;;;;;;;;;;;;17.10;59.90;100405.34;5272322;33;34468;-82
2022/10/02 16:18:13;;;;;;;;;;;;;;;16.87;61.49;100414.78;5279123;33;34050;-81
2022/10/02 16:21:18;;;;;;;;;;;;;;;16.83;61.49;100409.78;5299316;33;44957;-84
2022/10/02 16:24:31;;;;;;;;;;;;;;;16.68;62.24;100407.16;5284496;33;34397;-74
2022/10/02 16:27:52;;;;;;;;;;;;;;;16.82;62.33;100400.13;5279262;33;33920;-75